Main page
METAR-TAF:

METAR-TAF

Airports :

Weno, Weno Island, Micronesia

Chuuk International Airport

latitude: 07-28N, longitude: 151-51E, elevation: 3 m

Current weather observation

The report was made 46 minutes ago, at 01:52 UTC
Wind 8 kt from the Northeast
Temperature 31°C
Humidity 79%
Pressure 1009 hPa
Visibility: 24.1 km
Few clouds at a height of 1400 ft
Scattered clouds at a height of 12000 ft
Broken clouds at a height of 28000 ft

METAR: PTKK 240152Z 04008KT 15SM FEW014 SCT120 BKN280 31/27 A2979 RMK SLP089 T03120268

Time: 12:38 (02:38 UTC)

Forecast

The report was made 2 hours and 46 minutes ago, at 23:52 UTC
Forecast valid from 24 at 00 UTC to 24 at 24 UTC
Wind 6 kt from variable directions
Visibility: 10 km
Few clouds at a height of 1800 ft
Scattered clouds at a height of 14000 ft
showers in vicinity

TAF: PTKK 232352Z 2400/2424 VRB06KT P6SM VCSH FEW018 SCT140

Weather observations and forecasts of more than 4000 airports (METAR and TAF reports).

The available stations are represented by yellow and red dots on the map.

Hover mouse over dot to see the name of the station.

Then click to see weather observations and forecasts.

To change the map : click on the green buttons with a black cross to zoom in, on the green button with a dash to zoom out, or on the green arrows for adjacent maps.


METAR-TAF: